sensor_id;sensor_type;location;lat;lon;timestamp;temperature;humidity
54788;DHT22;59598;48.112;16.280;2022-07-29T00:01:32;19.60;99.90
54788;DHT22;59598;48.112;16.280;2022-07-29T00:04:04;19.60;99.90
54788;DHT22;59598;48.112;16.280;2022-07-29T00:06:37;19.50;99.90
54788;DHT22;59598;48.112;16.280;2022-07-29T00:09:11;19.50;99.90
54788;DHT22;59598;48.112;16.280;2022-07-29T00:11:45;19.40;99.90
54788;DHT22;59598;48.112;16.280;2022-07-29T00:14:18;19.40;99.90
54788;DHT22;59598;48.112;16.280;2022-07-29T00:16:49;19.40;99.90
54788;DHT22;59598;48.112;16.280;2022-07-29T00:19:23;19.40;99.90
54788;DHT22;59598;48.112;16.280;2022-07-29T00:22:00;19.40;99.90
54788;DHT22;59598;48.112;16.280;2022-07-29T00:24:36;19.30;99.90
54788;DHT22;59598;48.112;16.280;2022-07-29T00:27:10;19.20;99.90
54788;DHT22;59598;48.112;16.280;2022-07-29T00:29:41;19.20;99.90
54788;DHT22;59598;48.112;16.280;2022-07-29T00:32:16;19.20;99.90
54788;DHT22;59598;48.112;16.280;2022-07-29T00:34:47;19.10;99.90
54788;DHT22;59598;48.112;16.280;2022-07-29T00:37:37;19.10;99.90
54788;DHT22;59598;48.112;16.280;2022-07-29T00:40:10;19.10;99.90
54788;DHT22;59598;48.112;16.280;2022-07-29T00:42:48;19.00;99.90
54788;DHT22;59598;48.112;16.280;2022-07-29T00:45:22;18.90;99.90
54788;DHT22;59598;48.112;16.280;2022-07-29T00:47:56;18.90;99.90
54788;DHT22;59598;48.112;16.280;2022-07-29T00:50:30;18.90;99.90
54788;DHT22;59598;48.112;16.280;2022-07-29T00:53:03;18.80;99.90
54788;DHT22;59598;48.112;16.280;2022-07-29T00:55:34;18.80;99.90
54788;DHT22;59598;48.112;16.280;2022-07-29T00:58:06;18.80;99.90
54788;DHT22;59598;48.112;16.280;2022-07-29T01:00:40;18.80;99.90
54788;DHT22;59598;48.112;16.280;2022-07-29T01:03:12;18.80;99.90
54788;DHT22;59598;48.112;16.280;2022-07-29T01:05:44;18.80;99.90
54788;DHT22;59598;48.112;16.280;2022-07-29T01:08:16;18.80;99.90
54788;DHT22;59598;48.112;16.280;2022-07-29T01:10:49;18.70;99.90
54788;DHT22;59598;48.112;16.280;2022-07-29T01:13:21;18.70;99.90
54788;DHT22;59598;48.112;16.280;2022-07-29T01:16:00;18.60;99.90
54788;DHT22;59598;48.112;16.280;2022-07-29T01:18:39;18.60;99.90
54788;DHT22;59598;48.112;16.280;2022-07-29T01:21:43;18.50;99.90
54788;DHT22;59598;48.112;16.280;2022-07-29T01:24:39;18.50;99.90
54788;DHT22;59598;48.112;16.280;2022-07-29T01:27:32;18.50;99.90
54788;DHT22;59598;48.112;16.280;2022-07-29T01:30:08;18.50;99.90
54788;DHT22;59598;48.112;16.280;2022-07-29T01:32:41;18.50;99.90
54788;DHT22;59598;48.112;16.280;2022-07-29T01:35:39;18.40;99.90
54788;DHT22;59598;48.112;16.280;2022-07-29T01:38:15;18.40;99.90
54788;DHT22;59598;48.112;16.280;2022-07-29T01:41:10;18.40;99.90
54788;DHT22;59598;48.112;16.280;2022-07-29T01:44:00;18.30;99.90
54788;DHT22;59598;48.112;16.280;2022-07-29T01:46:38;18.30;99.90
54788;DHT22;59598;48.112;16.280;2022-07-29T01:49:24;18.30;99.90
54788;DHT22;59598;48.112;16.280;2022-07-29T01:52:05;18.20;99.90
54788;DHT22;59598;48.112;16.280;2022-07-29T01:54:43;18.20;99.90
54788;DHT22;59598;48.112;16.280;2022-07-29T01:57:17;18.10;99.90
54788;DHT22;59598;48.112;16.280;2022-07-29T01:59:53;18.10;99.90
54788;DHT22;59598;48.112;16.280;2022-07-29T02:02:26;18.00;99.90
54788;DHT22;59598;48.112;16.280;2022-07-29T02:05:02;18.00;99.90
54788;DHT22;59598;48.112;16.280;2022-07-29T02:07:33;17.90;99.90
54788;DHT22;59598;48.112;16.280;2022-07-29T02:10:09;17.90;99.90
54788;DHT22;59598;48.112;16.280;2022-07-29T02:12:45;17.90;99.90
54788;DHT22;59598;48.112;16.280;2022-07-29T02:15:18;17.90;99.90
54788;DHT22;59598;48.112;16.280;2022-07-29T02:17:55;17.90;99.90
54788;DHT22;59598;48.112;16.280;2022-07-29T02:20:28;17.90;99.90
54788;DHT22;59598;48.112;16.280;2022-07-29T02:23:02;17.90;99.90
54788;DHT22;59598;48.112;16.280;2022-07-29T02:25:33;17.90;99.90
54788;DHT22;59598;48.112;16.280;2022-07-29T02:28:08;17.90;99.90
54788;DHT22;59598;48.112;16.280;2022-07-29T02:30:43;17.90;99.90
54788;DHT22;59598;48.112;16.280;2022-07-29T02:33:16;17.90;99.90
54788;DHT22;59598;48.112;16.280;2022-07-29T02:35:57;17.90;99.90
54788;DHT22;59598;48.112;16.280;2022-07-29T02:38:32;17.80;99.90
54788;DHT22;59598;48.112;16.280;2022-07-29T02:44:06;17.80;99.90
54788;DHT22;59598;48.112;16.280;2022-07-29T02:46:53;17.80;99.90
54788;DHT22;59598;48.112;16.280;2022-07-29T02:49:36;17.80;99.90
54788;DHT22;59598;48.112;16.280;2022-07-29T02:52:17;17.80;99.90
54788;DHT22;59598;48.112;16.280;2022-07-29T02:55:16;17.70;99.90
54788;DHT22;59598;48.112;16.280;2022-07-29T02:57:59;17.70;99.90
54788;DHT22;59598;48.112;16.280;2022-07-29T03:00:35;17.60;99.90
54788;DHT22;59598;48.112;16.280;2022-07-29T03:03:12;17.70;99.90
54788;DHT22;59598;48.112;16.280;2022-07-29T03:05:44;17.60;99.90
54788;DHT22;59598;48.112;16.280;2022-07-29T03:08:18;17.60;99.90
54788;DHT22;59598;48.112;16.280;2022-07-29T03:10:53;17.50;99.90
54788;DHT22;59598;48.112;16.280;2022-07-29T03:13:32;17.40;99.90
54788;DHT22;59598;48.112;16.280;2022-07-29T03:16:05;17.40;99.90
54788;DHT22;59598;48.112;16.280;2022-07-29T03:18:37;17.40;99.90
54788;DHT22;59598;48.112;16.280;2022-07-29T03:21:09;17.30;99.90
54788;DHT22;59598;48.112;16.280;2022-07-29T03:23:44;17.30;99.90
54788;DHT22;59598;48.112;16.280;2022-07-29T03:26:21;17.30;99.90
54788;DHT22;59598;48.112;16.280;2022-07-29T03:28:54;17.30;99.90
54788;DHT22;59598;48.112;16.280;2022-07-29T03:31:27;17.40;99.90
54788;DHT22;59598;48.112;16.280;2022-07-29T03:34:04;17.50;99.90
54788;DHT22;59598;48.112;16.280;2022-07-29T03:36:37;17.50;99.90
54788;DHT22;59598;48.112;16.280;2022-07-29T03:39:09;17.60;99.90
54788;DHT22;59598;48.112;16.280;2022-07-29T03:41:49;17.60;99.90
54788;DHT22;59598;48.112;16.280;2022-07-29T03:44:24;17.60;99.90
54788;DHT22;59598;48.112;16.280;2022-07-29T03:46:59;17.60;99.90
54788;DHT22;59598;48.112;16.280;2022-07-29T03:49:33;17.70;99.90
54788;DHT22;59598;48.112;16.280;2022-07-29T03:52:09;17.70;99.90
54788;DHT22;59598;48.112;16.280;2022-07-29T03:54:40;17.70;99.90
54788;DHT22;59598;48.112;16.280;2022-07-29T03:57:19;17.70;99.90
54788;DHT22;59598;48.112;16.280;2022-07-29T03:59:54;17.70;99.90
54788;DHT22;59598;48.112;16.280;2022-07-29T04:02:26;17.70;99.90
54788;DHT22;59598;48.112;16.280;2022-07-29T04:05:05;17.60;99.90
54788;DHT22;59598;48.112;16.280;2022-07-29T04:07:40;17.70;99.90
54788;DHT22;59598;48.112;16.280;2022-07-29T04:10:15;17.70;99.90
54788;DHT22;59598;48.112;16.280;2022-07-29T04:12:50;17.80;99.90
54788;DHT22;59598;48.112;16.280;2022-07-29T04:15:23;17.90;99.90
54788;DHT22;59598;48.112;16.280;2022-07-29T04:18:01;18.10;99.90
54788;DHT22;59598;48.112;16.280;2022-07-29T04:20:33;18.20;99.90
54788;DHT22;59598;48.112;16.280;2022-07-29T04:23:04;18.50;99.90
54788;DHT22;59598;48.112;16.280;2022-07-29T04:25:41;18.70;99.90
54788;DHT22;59598;48.112;16.280;2022-07-29T04:28:15;18.90;99.90
54788;DHT22;59598;48.112;16.280;2022-07-29T04:30:49;19.10;99.90
54788;DHT22;59598;48.112;16.280;2022-07-29T04:33:20;19.40;99.90
54788;DHT22;59598;48.112;16.280;2022-07-29T04:35:52;19.70;99.90
54788;DHT22;59598;48.112;16.280;2022-07-29T04:38:23;19.80;99.90
54788;DHT22;59598;48.112;16.280;2022-07-29T04:40:54;20.00;99.90
54788;DHT22;59598;48.112;16.280;2022-07-29T04:43:25;20.20;99.90
54788;DHT22;59598;48.112;16.280;2022-07-29T04:45:58;20.50;99.90
54788;DHT22;59598;48.112;16.280;2022-07-29T04:48:36;20.70;99.90
54788;DHT22;59598;48.112;16.280;2022-07-29T04:51:12;21.00;99.90
54788;DHT22;59598;48.112;16.280;2022-07-29T04:53:46;21.10;99.90
54788;DHT22;59598;48.112;16.280;2022-07-29T04:56:19;21.20;99.90
54788;DHT22;59598;48.112;16.280;2022-07-29T04:58:54;21.50;99.90
54788;DHT22;59598;48.112;16.280;2022-07-29T05:01:26;21.70;99.90
54788;DHT22;59598;48.112;16.280;2022-07-29T05:03:57;22.00;99.90
54788;DHT22;59598;48.112;16.280;2022-07-29T05:06:28;21.70;99.90
54788;DHT22;59598;48.112;16.280;2022-07-29T05:09:11;21.30;99.90
54788;DHT22;59598;48.112;16.280;2022-07-29T05:11:42;21.10;99.90
54788;DHT22;59598;48.112;16.280;2022-07-29T05:14:14;21.00;99.90
54788;DHT22;59598;48.112;16.280;2022-07-29T05:16:45;21.00;99.90
54788;DHT22;59598;48.112;16.280;2022-07-29T05:19:17;21.20;99.90
54788;DHT22;59598;48.112;16.280;2022-07-29T05:21:48;21.30;99.90
54788;DHT22;59598;48.112;16.280;2022-07-29T05:24:23;21.60;99.90
54788;DHT22;59598;48.112;16.280;2022-07-29T05:27:00;22.00;99.90
54788;DHT22;59598;48.112;16.280;2022-07-29T05:29:31;22.10;99.90
54788;DHT22;59598;48.112;16.280;2022-07-29T05:32:06;22.50;99.90
54788;DHT22;59598;48.112;16.280;2022-07-29T05:34:37;23.00;99.90
54788;DHT22;59598;48.112;16.280;2022-07-29T05:37:11;23.20;99.90
54788;DHT22;59598;48.112;16.280;2022-07-29T05:39:45;23.60;99.90
54788;DHT22;59598;48.112;16.280;2022-07-29T05:42:19;23.70;99.90
54788;DHT22;59598;48.112;16.280;2022-07-29T05:44:50;23.90;99.90
54788;DHT22;59598;48.112;16.280;2022-07-29T05:47:23;23.80;99.90
54788;DHT22;59598;48.112;16.280;2022-07-29T05:49:54;24.20;99.90
54788;DHT22;59598;48.112;16.280;2022-07-29T05:52:28;24.50;99.90
54788;DHT22;59598;48.112;16.280;2022-07-29T05:54:59;24.60;99.90
54788;DHT22;59598;48.112;16.280;2022-07-29T05:57:36;24.60;99.90
54788;DHT22;59598;48.112;16.280;2022-07-29T06:00:09;24.90;99.90
54788;DHT22;59598;48.112;16.280;2022-07-29T06:02:40;25.30;99.90
54788;DHT22;59598;48.112;16.280;2022-07-29T06:05:11;25.60;99.90
54788;DHT22;59598;48.112;16.280;2022-07-29T06:07:43;25.50;99.90
54788;DHT22;59598;48.112;16.280;2022-07-29T06:10:17;25.80;99.90
54788;DHT22;59598;48.112;16.280;2022-07-29T06:12:49;25.30;99.90
54788;DHT22;59598;48.112;16.280;2022-07-29T06:15:21;25.50;99.90
54788;DHT22;59598;48.112;16.280;2022-07-29T06:18:00;25.70;99.90
54788;DHT22;59598;48.112;16.280;2022-07-29T06:20:31;25.00;99.90
54788;DHT22;59598;48.112;16.280;2022-07-29T06:23:02;24.60;99.90
54788;DHT22;59598;48.112;16.280;2022-07-29T06:25:41;24.50;99.90
54788;DHT22;59598;48.112;16.280;2022-07-29T06:28:13;24.60;99.90
54788;DHT22;59598;48.112;16.280;2022-07-29T06:30:45;24.60;99.90
54788;DHT22;59598;48.112;16.280;2022-07-29T06:33:18;24.80;99.90
54788;DHT22;59598;48.112;16.280;2022-07-29T06:35:52;24.40;99.90
54788;DHT22;59598;48.112;16.280;2022-07-29T06:38:26;24.60;99.90
54788;DHT22;59598;48.112;16.280;2022-07-29T06:40:57;24.80;99.90
54788;DHT22;59598;48.112;16.280;2022-07-29T06:43:39;24.70;99.90
54788;DHT22;59598;48.112;16.280;2022-07-29T06:46:14;24.40;99.90
54788;DHT22;59598;48.112;16.280;2022-07-29T06:48:45;24.70;99.90
54788;DHT22;59598;48.112;16.280;2022-07-29T06:51:21;25.10;99.90
54788;DHT22;59598;48.112;16.280;2022-07-29T06:53:52;25.40;99.90
54788;DHT22;59598;48.112;16.280;2022-07-29T06:56:32;25.70;99.90
54788;DHT22;59598;48.112;16.280;2022-07-29T06:59:08;26.00;99.90
54788;DHT22;59598;48.112;16.280;2022-07-29T07:01:44;26.10;99.90
54788;DHT22;59598;48.112;16.280;2022-07-29T07:04:15;26.20;99.90
54788;DHT22;59598;48.112;16.280;2022-07-29T07:06:46;26.60;99.90
54788;DHT22;59598;48.112;16.280;2022-07-29T07:09:23;26.60;99.90
54788;DHT22;59598;48.112;16.280;2022-07-29T07:11:54;26.40;99.90
54788;DHT22;59598;48.112;16.280;2022-07-29T07:14:25;26.80;99.90
54788;DHT22;59598;48.112;16.280;2022-07-29T07:16:58;26.80;99.90
54788;DHT22;59598;48.112;16.280;2022-07-29T07:19:33;26.60;99.90
54788;DHT22;59598;48.112;16.280;2022-07-29T07:22:04;26.30;99.90
54788;DHT22;59598;48.112;16.280;2022-07-29T07:24:39;25.90;99.90
54788;DHT22;59598;48.112;16.280;2022-07-29T07:27:15;25.60;99.90
54788;DHT22;59598;48.112;16.280;2022-07-29T07:29:53;25.00;99.90
54788;DHT22;59598;48.112;16.280;2022-07-29T07:32:28;25.20;99.90
54788;DHT22;59598;48.112;16.280;2022-07-29T07:35:04;25.20;99.90
54788;DHT22;59598;48.112;16.280;2022-07-29T07:37:39;25.50;99.90
54788;DHT22;59598;48.112;16.280;2022-07-29T07:40:13;25.70;99.90
54788;DHT22;59598;48.112;16.280;2022-07-29T07:42:45;26.00;99.90
54788;DHT22;59598;48.112;16.280;2022-07-29T07:45:16;26.10;99.90
54788;DHT22;59598;48.112;16.280;2022-07-29T07:47:48;25.80;99.90
54788;DHT22;59598;48.112;16.280;2022-07-29T07:50:19;26.00;99.90
54788;DHT22;59598;48.112;16.280;2022-07-29T07:52:52;27.00;99.90
54788;DHT22;59598;48.112;16.280;2022-07-29T07:55:24;27.00;99.90
54788;DHT22;59598;48.112;16.280;2022-07-29T07:57:59;26.90;99.90
54788;DHT22;59598;48.112;16.280;2022-07-29T08:00:30;27.00;99.90
54788;DHT22;59598;48.112;16.280;2022-07-29T08:03:06;28.20;99.90
54788;DHT22;59598;48.112;16.280;2022-07-29T08:05:40;28.60;99.90
54788;DHT22;59598;48.112;16.280;2022-07-29T08:08:11;28.50;99.90
54788;DHT22;59598;48.112;16.280;2022-07-29T08:10:42;28.60;99.90
54788;DHT22;59598;48.112;16.280;2022-07-29T08:13:27;29.00;99.90
54788;DHT22;59598;48.112;16.280;2022-07-29T08:15:59;28.30;99.90
54788;DHT22;59598;48.112;16.280;2022-07-29T08:18:43;27.30;99.90
54788;DHT22;59598;48.112;16.280;2022-07-29T08:21:18;26.90;99.90
54788;DHT22;59598;48.112;16.280;2022-07-29T08:23:52;26.60;99.90
54788;DHT22;59598;48.112;16.280;2022-07-29T08:26:48;26.60;99.90
54788;DHT22;59598;48.112;16.280;2022-07-29T08:29:19;26.70;99.90
54788;DHT22;59598;48.112;16.280;2022-07-29T08:31:51;27.00;99.90
54788;DHT22;59598;48.112;16.280;2022-07-29T08:34:25;26.40;99.90
54788;DHT22;59598;48.112;16.280;2022-07-29T08:36:59;26.30;99.90
54788;DHT22;59598;48.112;16.280;2022-07-29T08:39:30;26.60;99.90
54788;DHT22;59598;48.112;16.280;2022-07-29T08:42:01;26.80;99.90
54788;DHT22;59598;48.112;16.280;2022-07-29T08:44:33;26.90;99.90
54788;DHT22;59598;48.112;16.280;2022-07-29T08:47:05;27.10;99.90
54788;DHT22;59598;48.112;16.280;2022-07-29T08:49:37;27.20;99.90
54788;DHT22;59598;48.112;16.280;2022-07-29T08:52:14;27.60;99.90
54788;DHT22;59598;48.112;16.280;2022-07-29T08:54:47;27.50;99.90
54788;DHT22;59598;48.112;16.280;2022-07-29T08:57:20;28.20;99.90
54788;DHT22;59598;48.112;16.280;2022-07-29T08:59:54;28.40;99.90
54788;DHT22;59598;48.112;16.280;2022-07-29T09:02:29;29.40;99.90
54788;DHT22;59598;48.112;16.280;2022-07-29T09:05:10;29.60;99.90
54788;DHT22;59598;48.112;16.280;2022-07-29T09:07:42;29.20;99.90
54788;DHT22;59598;48.112;16.280;2022-07-29T09:10:21;29.70;99.90
54788;DHT22;59598;48.112;16.280;2022-07-29T09:12:54;29.10;99.90
54788;DHT22;59598;48.112;16.280;2022-07-29T09:15:28;28.60;99.90
54788;DHT22;59598;48.112;16.280;2022-07-29T09:17:59;29.10;99.90
54788;DHT22;59598;48.112;16.280;2022-07-29T09:20:34;29.10;99.90
54788;DHT22;59598;48.112;16.280;2022-07-29T09:23:23;29.10;99.90
54788;DHT22;59598;48.112;16.280;2022-07-29T09:25:55;29.10;99.90
54788;DHT22;59598;48.112;16.280;2022-07-29T09:28:28;29.50;99.90
54788;DHT22;59598;48.112;16.280;2022-07-29T09:31:02;30.60;99.90
54788;DHT22;59598;48.112;16.280;2022-07-29T09:33:34;30.30;99.90
54788;DHT22;59598;48.112;16.280;2022-07-29T09:36:10;30.00;99.90
54788;DHT22;59598;48.112;16.280;2022-07-29T09:38:43;29.90;99.90
54788;DHT22;59598;48.112;16.280;2022-07-29T09:41:28;29.80;99.90
54788;DHT22;59598;48.112;16.280;2022-07-29T09:44:00;29.90;99.90
54788;DHT22;59598;48.112;16.280;2022-07-29T09:46:32;29.60;99.90
54788;DHT22;59598;48.112;16.280;2022-07-29T09:49:13;28.90;99.90
54788;DHT22;59598;48.112;16.280;2022-07-29T09:51:45;29.10;99.90
54788;DHT22;59598;48.112;16.280;2022-07-29T09:54:26;30.00;99.90
54788;DHT22;59598;48.112;16.280;2022-07-29T09:57:07;31.40;99.90
54788;DHT22;59598;48.112;16.280;2022-07-29T10:00:03;32.20;99.90
54788;DHT22;59598;48.112;16.280;2022-07-29T10:02:37;33.20;99.90
54788;DHT22;59598;48.112;16.280;2022-07-29T10:05:24;34.00;99.90
54788;DHT22;59598;48.112;16.280;2022-07-29T10:08:05;34.80;99.90
54788;DHT22;59598;48.112;16.280;2022-07-29T10:10:42;34.60;99.90
54788;DHT22;59598;48.112;16.280;2022-07-29T10:13:14;34.60;99.90
54788;DHT22;59598;48.112;16.280;2022-07-29T10:15:49;35.00;99.90
54788;DHT22;59598;48.112;16.280;2022-07-29T10:18:22;34.90;99.90
54788;DHT22;59598;48.112;16.280;2022-07-29T10:20:57;34.00;99.90
54788;DHT22;59598;48.112;16.280;2022-07-29T10:23:32;33.50;99.90
54788;DHT22;59598;48.112;16.280;2022-07-29T10:26:04;34.00;99.90
54788;DHT22;59598;48.112;16.280;2022-07-29T10:28:41;33.10;99.90
54788;DHT22;59598;48.112;16.280;2022-07-29T10:31:24;32.70;99.90
54788;DHT22;59598;48.112;16.280;2022-07-29T10:37:18;32.10;99.90
54788;DHT22;59598;48.112;16.280;2022-07-29T10:40:00;32.90;99.90
54788;DHT22;59598;48.112;16.280;2022-07-29T10:43:01;33.00;99.90
54788;DHT22;59598;48.112;16.280;2022-07-29T10:45:39;33.30;99.90
54788;DHT22;59598;48.112;16.280;2022-07-29T10:48:10;33.40;99.90
54788;DHT22;59598;48.112;16.280;2022-07-29T10:51:01;32.60;99.90
54788;DHT22;59598;48.112;16.280;2022-07-29T10:53:51;32.20;99.90
54788;DHT22;59598;48.112;16.280;2022-07-29T11:01:54;33.00;99.90
54788;DHT22;59598;48.112;16.280;2022-07-29T11:07:18;32.00;99.90
54788;DHT22;59598;48.112;16.280;2022-07-29T11:15:22;32.20;99.90
54788;DHT22;59598;48.112;16.280;2022-07-29T11:20:41;30.40;99.90
54788;DHT22;59598;48.112;16.280;2022-07-29T11:23:36;31.00;99.90
54788;DHT22;59598;48.112;16.280;2022-07-29T11:26:20;31.90;99.90
54788;DHT22;59598;48.112;16.280;2022-07-29T11:28:58;32.00;99.90
54788;DHT22;59598;48.112;16.280;2022-07-29T11:31:38;31.40;99.90
54788;DHT22;59598;48.112;16.280;2022-07-29T11:34:20;30.90;99.90
54788;DHT22;59598;48.112;16.280;2022-07-29T11:39:41;32.30;99.90
54788;DHT22;59598;48.112;16.280;2022-07-29T11:45:05;34.60;99.90
54788;DHT22;59598;48.112;16.280;2022-07-29T11:47:39;34.70;99.90
54788;DHT22;59598;48.112;16.280;2022-07-29T11:50:16;34.20;99.90
54788;DHT22;59598;48.112;16.280;2022-07-29T11:52:50;34.70;99.90
54788;DHT22;59598;48.112;16.280;2022-07-29T11:55:23;33.90;99.90
54788;DHT22;59598;48.112;16.280;2022-07-29T11:58:01;34.00;99.90
54788;DHT22;59598;48.112;16.280;2022-07-29T12:00:40;34.80;99.90
54788;DHT22;59598;48.112;16.280;2022-07-29T12:03:26;36.80;99.90
54788;DHT22;59598;48.112;16.280;2022-07-29T12:05:57;37.40;99.90
54788;DHT22;59598;48.112;16.280;2022-07-29T12:08:40;36.40;99.90
54788;DHT22;59598;48.112;16.280;2022-07-29T12:11:18;37.50;99.90
54788;DHT22;59598;48.112;16.280;2022-07-29T12:13:50;38.00;99.90
54788;DHT22;59598;48.112;16.280;2022-07-29T12:16:22;37.90;99.90
54788;DHT22;59598;48.112;16.280;2022-07-29T12:18:57;37.70;99.90
54788;DHT22;59598;48.112;16.280;2022-07-29T12:21:52;36.50;99.90
54788;DHT22;59598;48.112;16.280;2022-07-29T12:24:23;34.60;99.90
54788;DHT22;59598;48.112;16.280;2022-07-29T12:26:57;33.50;99.90
54788;DHT22;59598;48.112;16.280;2022-07-29T12:29:31;32.70;99.90
54788;DHT22;59598;48.112;16.280;2022-07-29T12:32:05;33.40;99.90
54788;DHT22;59598;48.112;16.280;2022-07-29T12:34:37;33.60;99.90
54788;DHT22;59598;48.112;16.280;2022-07-29T12:37:11;34.00;99.90
54788;DHT22;59598;48.112;16.280;2022-07-29T12:39:42;35.30;99.90
54788;DHT22;59598;48.112;16.280;2022-07-29T12:42:16;35.10;99.90
54788;DHT22;59598;48.112;16.280;2022-07-29T12:44:51;34.50;99.90
54788;DHT22;59598;48.112;16.280;2022-07-29T12:47:26;32.90;99.90
54788;DHT22;59598;48.112;16.280;2022-07-29T12:50:12;32.70;99.90
54788;DHT22;59598;48.112;16.280;2022-07-29T12:52:45;32.10;99.90
54788;DHT22;59598;48.112;16.280;2022-07-29T12:55:41;32.10;99.90
54788;DHT22;59598;48.112;16.280;2022-07-29T12:58:45;32.30;99.90
54788;DHT22;59598;48.112;16.280;2022-07-29T13:01:20;32.20;99.90
54788;DHT22;59598;48.112;16.280;2022-07-29T13:03:58;31.90;99.90
54788;DHT22;59598;48.112;16.280;2022-07-29T13:09:15;30.00;99.90
54788;DHT22;59598;48.112;16.280;2022-07-29T13:11:49;28.90;99.90
54788;DHT22;59598;48.112;16.280;2022-07-29T13:14:35;28.30;99.90
54788;DHT22;59598;48.112;16.280;2022-07-29T13:17:19;27.80;99.90
54788;DHT22;59598;48.112;16.280;2022-07-29T13:19:53;27.60;99.90
54788;DHT22;59598;48.112;16.280;2022-07-29T13:22:27;27.40;99.90
54788;DHT22;59598;48.112;16.280;2022-07-29T13:25:01;27.00;99.90
54788;DHT22;59598;48.112;16.280;2022-07-29T13:27:35;26.70;99.90
54788;DHT22;59598;48.112;16.280;2022-07-29T13:30:08;26.60;99.90
54788;DHT22;59598;48.112;16.280;2022-07-29T13:32:40;26.40;99.90
54788;DHT22;59598;48.112;16.280;2022-07-29T13:35:13;26.10;99.90
54788;DHT22;59598;48.112;16.280;2022-07-29T13:37:48;25.80;99.90
54788;DHT22;59598;48.112;16.280;2022-07-29T13:40:19;25.50;99.90
54788;DHT22;59598;48.112;16.280;2022-07-29T13:42:54;25.20;99.90
54788;DHT22;59598;48.112;16.280;2022-07-29T13:45:28;24.90;99.90
54788;DHT22;59598;48.112;16.280;2022-07-29T13:48:02;24.70;99.90
54788;DHT22;59598;48.112;16.280;2022-07-29T13:50:33;24.50;99.90
54788;DHT22;59598;48.112;16.280;2022-07-29T13:53:06;24.20;99.90
54788;DHT22;59598;48.112;16.280;2022-07-29T13:55:38;23.70;99.90
54788;DHT22;59598;48.112;16.280;2022-07-29T13:58:09;23.50;99.90
54788;DHT22;59598;48.112;16.280;2022-07-29T14:00:40;23.50;99.90
54788;DHT22;59598;48.112;16.280;2022-07-29T14:03:11;23.20;99.90
54788;DHT22;59598;48.112;16.280;2022-07-29T14:05:43;22.90;99.90
54788;DHT22;59598;48.112;16.280;2022-07-29T14:08:16;22.50;99.90
54788;DHT22;59598;48.112;16.280;2022-07-29T14:10:50;22.20;99.90
54788;DHT22;59598;48.112;16.280;2022-07-29T14:13:24;22.00;99.90
54788;DHT22;59598;48.112;16.280;2022-07-29T14:15:55;21.80;99.90
54788;DHT22;59598;48.112;16.280;2022-07-29T14:18:26;21.60;99.90
54788;DHT22;59598;48.112;16.280;2022-07-29T14:20:58;21.40;99.90
54788;DHT22;59598;48.112;16.280;2022-07-29T14:23:30;21.20;99.90
54788;DHT22;59598;48.112;16.280;2022-07-29T14:26:03;21.00;99.90
54788;DHT22;59598;48.112;16.280;2022-07-29T14:28:35;20.80;99.90
54788;DHT22;59598;48.112;16.280;2022-07-29T14:31:06;20.70;99.90
54788;DHT22;59598;48.112;16.280;2022-07-29T14:33:37;20.60;99.90
54788;DHT22;59598;48.112;16.280;2022-07-29T14:36:09;20.50;99.90
54788;DHT22;59598;48.112;16.280;2022-07-29T14:38:40;20.50;99.90
54788;DHT22;59598;48.112;16.280;2022-07-29T14:41:11;20.60;99.90
54788;DHT22;59598;48.112;16.280;2022-07-29T14:43:45;20.60;99.90
54788;DHT22;59598;48.112;16.280;2022-07-29T14:46:20;20.50;99.90
54788;DHT22;59598;48.112;16.280;2022-07-29T14:48:51;20.50;99.90
54788;DHT22;59598;48.112;16.280;2022-07-29T14:51:22;20.60;99.90
54788;DHT22;59598;48.112;16.280;2022-07-29T14:53:56;20.60;99.90
54788;DHT22;59598;48.112;16.280;2022-07-29T14:56:27;20.80;99.90
54788;DHT22;59598;48.112;16.280;2022-07-29T14:59:05;20.90;99.90
54788;DHT22;59598;48.112;16.280;2022-07-29T15:01:36;21.10;99.90
54788;DHT22;59598;48.112;16.280;2022-07-29T15:04:07;21.10;99.90
54788;DHT22;59598;48.112;16.280;2022-07-29T15:06:39;21.10;99.90
54788;DHT22;59598;48.112;16.280;2022-07-29T15:09:12;21.10;99.90
54788;DHT22;59598;48.112;16.280;2022-07-29T15:11:44;21.20;99.90
54788;DHT22;59598;48.112;16.280;2022-07-29T15:14:17;21.40;99.90
54788;DHT22;59598;48.112;16.280;2022-07-29T15:16:54;21.60;99.90
54788;DHT22;59598;48.112;16.280;2022-07-29T15:19:30;21.70;99.90
54788;DHT22;59598;48.112;16.280;2022-07-29T15:22:04;22.00;99.90
54788;DHT22;59598;48.112;16.280;2022-07-29T15:24:40;22.20;99.90
54788;DHT22;59598;48.112;16.280;2022-07-29T15:27:18;22.30;99.90
54788;DHT22;59598;48.112;16.280;2022-07-29T15:29:52;22.50;99.90
54788;DHT22;59598;48.112;16.280;2022-07-29T15:32:24;22.80;99.90
54788;DHT22;59598;48.112;16.280;2022-07-29T15:34:55;22.90;99.90
54788;DHT22;59598;48.112;16.280;2022-07-29T15:37:29;23.20;99.90
54788;DHT22;59598;48.112;16.280;2022-07-29T15:40:00;23.50;99.90
54788;DHT22;59598;48.112;16.280;2022-07-29T15:42:35;23.70;99.90
54788;DHT22;59598;48.112;16.280;2022-07-29T15:45:07;23.80;99.90
54788;DHT22;59598;48.112;16.280;2022-07-29T15:47:38;24.10;99.90
54788;DHT22;59598;48.112;16.280;2022-07-29T15:50:09;24.20;99.90
54788;DHT22;59598;48.112;16.280;2022-07-29T15:52:48;24.40;99.90
54788;DHT22;59598;48.112;16.280;2022-07-29T15:55:22;24.50;99.90
54788;DHT22;59598;48.112;16.280;2022-07-29T15:57:54;24.40;99.90
54788;DHT22;59598;48.112;16.280;2022-07-29T16:00:28;23.80;99.90
54788;DHT22;59598;48.112;16.280;2022-07-29T16:02:59;23.80;99.90
54788;DHT22;59598;48.112;16.280;2022-07-29T16:05:30;23.80;99.90
54788;DHT22;59598;48.112;16.280;2022-07-29T16:08:04;23.80;99.90
54788;DHT22;59598;48.112;16.280;2022-07-29T16:10:36;24.00;99.90
54788;DHT22;59598;48.112;16.280;2022-07-29T16:13:12;24.20;99.90
54788;DHT22;59598;48.112;16.280;2022-07-29T16:15:45;24.20;99.90
54788;DHT22;59598;48.112;16.280;2022-07-29T16:18:17;24.20;99.90
54788;DHT22;59598;48.112;16.280;2022-07-29T16:20:50;24.50;99.90
54788;DHT22;59598;48.112;16.280;2022-07-29T16:23:24;24.40;99.90
54788;DHT22;59598;48.112;16.280;2022-07-29T16:25:58;24.10;99.90
54788;DHT22;59598;48.112;16.280;2022-07-29T16:28:29;24.60;99.90
54788;DHT22;59598;48.112;16.280;2022-07-29T16:31:01;25.80;99.90
54788;DHT22;59598;48.112;16.280;2022-07-29T16:33:37;27.20;99.90
54788;DHT22;59598;48.112;16.280;2022-07-29T16:36:08;27.90;99.90